Time;durP1;ratioP1;P1;durP2;ratioP2;P2;SDS_P1;SDS_P2;PMS_P1;PMS_P2;Temp;Humidity;BMP_temperature;BMP_pressure;BME280_temperature;BME280_humidity;BME280_pressure;Samples;Min_cycle;Max_cycle;Signal;HPM_P1;HPM_P2
2022/10/02 00:00:07;;;;;;;36.40;4.18;;;16.30;99.90;;;;;;5034432;28;20290;-77
2022/10/02 00:02:36;;;;;;;31.70;4.05;;;16.20;99.90;;;;;;5034585;28;20181;-80
2022/10/02 00:05:04;;;;;;;33.22;4.65;;;16.10;99.90;;;;;;5034249;28;20204;-80
2022/10/02 00:07:45;;;;;;;31.15;4.68;;;16.10;99.90;;;;;;5033174;28;20692;-79
2022/10/02 00:10:51;;;;;;;31.05;5.00;;;16.30;99.90;;;;;;5034071;28;20182;-80
2022/10/02 00:13:43;;;;;;;28.08;4.25;;;16.20;99.90;;;;;;5034014;28;20164;-79
2022/10/02 00:16:33;;;;;;;34.30;3.90;;;16.10;99.90;;;;;;5031073;28;20204;-78
2022/10/02 00:18:59;;;;;;;26.95;4.07;;;16.10;99.90;;;;;;5034243;28;20222;-78
2022/10/02 00:21:43;;;;;;;27.75;4.13;;;16.10;99.90;;;;;;5033937;28;20176;-79
2022/10/02 00:24:15;;;;;;;30.73;4.82;;;16.00;99.90;;;;;;5033281;28;20226;-82
2022/10/02 00:26:57;;;;;;;42.78;4.57;;;16.00;99.90;;;;;;5033761;28;20163;-80
2022/10/02 00:29:47;;;;;;;30.30;4.45;;;16.10;99.90;;;;;;5033748;28;20176;-79
2022/10/02 00:32:40;;;;;;;37.47;4.85;;;16.20;99.90;;;;;;5033900;28;20501;-79
2022/10/02 00:35:24;;;;;;;23.38;4.40;;;16.20;99.90;;;;;;5033278;28;20192;-78
2022/10/02 00:38:08;;;;;;;29.95;4.43;;;16.30;99.90;;;;;;5033162;28;20167;-79
2022/10/02 00:41:02;;;;;;;34.08;4.38;;;16.40;99.90;;;;;;5033841;28;20172;-79
2022/10/02 00:44:25;;;;;;;21.25;3.33;;;16.50;99.90;;;;;;5032514;28;20219;-79
2022/10/02 00:47:09;;;;;;;31.70;4.25;;;16.30;99.90;;;;;;5014541;28;20661;-78
2022/10/02 00:49:52;;;;;;;18.70;3.88;;;16.30;99.90;;;;;;5031227;28;20183;-76
2022/10/02 00:52:33;;;;;;;25.25;2.95;;;16.30;99.90;;;;;;5032889;28;20203;-77
2022/10/02 00:55:13;;;;;;;21.38;3.50;;;16.30;99.90;;;;;;5033481;28;20183;-77
2022/10/02 00:57:58;;;;;;;30.73;3.72;;;16.30;99.90;;;;;;5033005;28;20175;-76
2022/10/02 01:00:25;;;;;;;30.40;3.78;;;16.30;99.90;;;;;;5032700;28;20163;-76
2022/10/02 01:03:06;;;;;;;37.47;4.88;;;16.30;99.90;;;;;;5032853;28;20222;-78
2022/10/02 01:05:33;;;;;;;25.98;4.15;;;16.40;99.90;;;;;;5032843;28;20192;-81
2022/10/02 01:07:59;;;;;;;20.17;4.53;;;16.40;99.90;;;;;;5032293;28;20248;-80
2022/10/02 01:10:25;;;;;;;25.58;4.68;;;16.40;99.90;;;;;;5032943;28;20164;-78
2022/10/02 01:12:53;;;;;;;17.00;3.67;;;16.20;99.90;;;;;;5032068;28;20180;-84
2022/10/02 01:15:22;;;;;;;30.15;4.30;;;16.30;99.90;;;;;;5033080;28;20679;-76
2022/10/02 01:17:51;;;;;;;28.17;3.50;;;16.20;99.90;;;;;;5032832;28;20167;-77
2022/10/02 01:20:22;;;;;;;23.90;3.53;;;16.00;99.90;;;;;;5031576;28;20167;-79
2022/10/02 01:22:59;;;;;;;20.90;3.60;;;16.00;99.90;;;;;;5032682;28;20163;-77
2022/10/02 01:25:25;;;;;;;33.67;4.30;;;16.00;99.90;;;;;;5033141;28;20658;-77
2022/10/02 01:27:52;;;;;;;26.45;3.65;;;16.10;99.90;;;;;;5048395;28;20164;-77
2022/10/02 01:30:19;;;;;;;23.45;4.13;;;16.00;99.90;;;;;;5033327;28;20218;-80
2022/10/02 01:32:52;;;;;;;32.85;4.13;;;15.90;99.90;;;;;;5031658;28;20180;-77
2022/10/02 01:35:21;;;;;;;27.85;3.75;;;15.90;99.90;;;;;;5033296;28;20216;-78
2022/10/02 01:37:49;;;;;;;23.85;4.30;;;15.90;99.90;;;;;;5032829;28;20167;-79
2022/10/02 01:40:34;;;;;;;25.05;3.38;;;15.90;99.90;;;;;;5032416;28;20164;-78
2022/10/02 01:43:22;;;;;;;22.63;3.90;;;15.80;99.90;;;;;;5032478;28;20175;-81
2022/10/02 01:46:09;;;;;;;26.88;3.90;;;15.70;99.90;;;;;;5032293;28;20678;-80
2022/10/02 01:48:35;;;;;;;24.38;4.65;;;15.80;99.90;;;;;;5032715;28;20187;-81
2022/10/02 01:51:11;;;;;;;21.13;3.38;;;15.80;99.90;;;;;;5032615;28;20206;-82
2022/10/02 01:53:47;;;;;;;25.23;3.38;;;15.80;99.90;;;;;;5032106;28;20661;-80
2022/10/02 01:56:39;;;;;;;23.67;3.65;;;15.90;99.90;;;;;;5032402;28;20592;-78
2022/10/02 01:59:28;;;;;;;30.85;3.70;;;15.80;99.90;;;;;;5032257;28;20171;-78
2022/10/02 02:02:13;;;;;;;29.25;3.33;;;15.70;99.90;;;;;;5031374;28;20203;-79
2022/10/02 02:04:53;;;;;;;13.27;2.97;;;15.70;99.90;;;;;;5031929;28;20215;-80
2022/10/02 02:07:33;;;;;;;17.80;3.47;;;15.80;99.90;;;;;;5031875;28;20254;-81
2022/10/02 02:10:07;;;;;;;28.90;3.90;;;15.80;99.90;;;;;;5032015;28;20243;-79
2022/10/02 02:12:47;;;;;;;18.40;3.45;;;15.90;99.90;;;;;;5032620;28;20530;-79
2022/10/02 02:15:23;;;;;;;21.75;3.00;;;16.00;99.90;;;;;;5032214;28;20218;-81
2022/10/02 02:18:05;;;;;;;11.95;2.80;;;15.90;99.90;;;;;;5032103;28;20163;-79
2022/10/02 02:20:37;;;;;;;20.52;2.38;;;15.80;99.90;;;;;;5036544;28;20167;-79
2022/10/02 02:23:13;;;;;;;13.32;2.53;;;15.80;99.90;;;;;;5035972;28;20168;-79
2022/10/02 02:25:42;;;;;;;14.35;2.83;;;15.90;99.90;;;;;;5036092;28;20202;-79
2022/10/02 02:28:11;;;;;;;25.33;3.45;;;15.90;99.90;;;;;;5035937;28;20186;-82
2022/10/02 02:30:40;;;;;;;16.05;3.13;;;15.80;99.90;;;;;;5034645;28;20168;-80
2022/10/02 02:33:12;;;;;;;22.50;2.85;;;15.90;99.90;;;;;;5036532;28;20271;-78
2022/10/02 02:35:44;;;;;;;18.20;3.28;;;15.90;99.90;;;;;;5036097;28;20646;-79
2022/10/02 02:38:37;;;;;;;18.35;3.45;;;15.90;99.90;;;;;;5034698;28;20254;-79
2022/10/02 02:41:08;;;;;;;17.85;2.75;;;15.90;99.90;;;;;;5035660;28;20496;-78
2022/10/02 02:43:57;;;;;;;18.35;2.33;;;15.90;99.90;;;;;;5036011;28;20211;-78
2022/10/02 02:47:05;;;;;;;19.45;2.47;;;16.00;99.90;;;;;;5036097;28;20251;-81
2022/10/02 02:49:56;;;;;;;15.73;2.53;;;15.70;99.90;;;;;;5034807;28;20594;-80
2022/10/02 02:52:44;;;;;;;14.07;2.72;;;15.60;99.90;;;;;;5035309;28;20186;-79
2022/10/02 02:55:18;;;;;;;19.05;3.30;;;15.80;99.90;;;;;;5035367;28;20550;-79
2022/10/02 02:57:54;;;;;;;20.08;3.03;;;15.90;99.90;;;;;;5035672;28;20618;-80
2022/10/02 03:00:21;;;;;;;13.55;2.45;;;15.80;99.90;;;;;;5035401;28;20177;-78
2022/10/02 03:02:49;;;;;;;20.10;2.83;;;15.80;99.90;;;;;;5035480;28;20529;-79
2022/10/02 03:05:17;;;;;;;14.38;3.20;;;15.90;99.90;;;;;;5035510;28;20203;-81
2022/10/02 03:07:54;;;;;;;17.17;3.08;;;16.00;99.90;;;;;;5035396;28;20190;-80
2022/10/02 03:10:39;;;;;;;23.33;2.55;;;15.80;99.90;;;;;;5035628;28;20242;-81
2022/10/02 03:13:43;;;;;;;12.38;3.10;;;15.90;99.90;;;;;;5035082;28;20164;-79
2022/10/02 03:16:33;;;;;;;8.05;2.33;;;15.80;99.90;;;;;;5034952;28;20550;-79
2022/10/02 03:19:05;;;;;;;8.38;2.65;;;15.60;99.90;;;;;;5035314;28;20163;-78
2022/10/02 03:22:08;;;;;;;15.95;2.65;;;15.60;99.90;;;;;;5035368;28;20168;-87
2022/10/02 03:25:05;;;;;;;7.80;2.30;;;15.50;99.90;;;;;;5035557;28;20669;-80
2022/10/02 03:27:33;;;;;;;15.45;2.47;;;15.60;99.90;;;;;;5035314;28;20238;-81
2022/10/02 03:30:04;;;;;;;12.85;2.15;;;15.60;99.90;;;;;;5035137;28;20175;-87
2022/10/02 03:32:32;;;;;;;9.75;1.90;;;15.60;99.90;;;;;;5035476;28;20172;-87
2022/10/02 03:34:58;;;;;;;8.32;1.92;;;15.60;99.90;;;;;;5035264;28;20180;-80
2022/10/02 03:37:24;;;;;;;15.20;2.00;;;15.60;99.90;;;;;;5035256;28;20168;-82
2022/10/02 03:39:51;;;;;;;12.38;1.88;;;15.60;99.90;;;;;;5034881;28;20195;-85
2022/10/02 03:42:23;;;;;;;4.70;1.67;;;15.60;99.90;;;;;;5035269;28;20190;-87
2022/10/02 03:44:48;;;;;;;9.35;2.13;;;15.50;99.90;;;;;;5050414;28;20217;-86
2022/10/02 03:47:15;;;;;;;8.50;1.45;;;15.50;99.90;;;;;;5035177;28;20247;-78
2022/10/02 03:49:40;;;;;;;12.32;2.15;;;15.60;99.90;;;;;;5035005;28;20175;-79
2022/10/02 03:52:06;;;;;;;7.95;1.60;;;15.70;99.90;;;;;;5035026;28;20171;-85
2022/10/02 03:54:34;;;;;;;8.75;1.85;;;15.70;99.90;;;;;;5035081;28;20241;-79
2022/10/02 03:57:07;;;;;;;7.68;1.60;;;15.70;99.90;;;;;;5034928;28;20178;-78
2022/10/02 03:59:38;;;;;;;12.82;2.10;;;15.70;99.90;;;;;;5035299;28;20552;-85
2022/10/02 04:02:11;;;;;;;4.97;1.17;;;15.80;99.90;;;;;;5034786;28;20202;-81
2022/10/02 04:04:54;;;;;;;5.88;1.70;;;15.90;99.90;;;;;;5034714;28;20697;-81
2022/10/02 04:07:27;;;;;;;6.22;1.65;;;15.90;99.90;;;;;;5034681;28;20164;-80
2022/10/02 04:10:19;;;;;;;9.52;1.85;;;15.90;99.90;;;;;;5035031;28;20171;-83
2022/10/02 04:12:51;;;;;;;5.95;2.00;;;15.80;99.90;;;;;;5026156;28;20262;-84
2022/10/02 04:15:27;;;;;;;6.50;1.63;;;15.70;99.90;;;;;;5035044;28;20190;-79
2022/10/02 04:18:06;;;;;;;9.35;2.28;;;15.70;99.90;;;;;;5034626;28;20170;-82
2022/10/02 04:20:46;;;;;;;14.93;2.15;;;15.60;99.90;;;;;;5034366;28;20160;-81
2022/10/02 04:23:23;;;;;;;8.50;1.67;;;15.60;99.90;;;;;;5036776;28;20171;-85
2022/10/02 04:26:26;;;;;;;11.00;1.73;;;15.80;99.90;;;;;;5035482;28;20183;-81
2022/10/02 04:28:57;;;;;;;6.57;1.90;;;15.80;99.90;;;;;;5022039;28;20207;-89
2022/10/02 04:31:26;;;;;;;14.40;2.60;;;15.90;99.90;;;;;;5033073;28;20703;-83
2022/10/02 04:33:52;;;;;;;8.20;2.00;;;15.80;99.90;;;;;;5034060;28;20172;-81
2022/10/02 04:36:46;;;;;;;15.02;2.08;;;15.70;99.90;;;;;;5033943;28;20191;-88
2022/10/02 04:39:42;;;;;;;13.82;2.10;;;15.70;99.90;;;;;;5034256;28;20195;-81
2022/10/02 04:42:16;;;;;;;12.23;2.63;;;15.80;99.90;;;;;;5017812;28;20192;-80
2022/10/02 04:45:05;;;;;;;11.70;2.30;;;15.70;99.90;;;;;;5035633;28;20207;-81
2022/10/02 04:47:49;;;;;;;23.10;3.15;;;15.70;99.90;;;;;;5034659;28;20167;-82
2022/10/02 04:50:35;;;;;;;14.93;2.47;;;15.70;99.90;;;;;;5032907;28;20201;-81
2022/10/02 04:53:19;;;;;;;11.13;2.20;;;15.50;99.90;;;;;;5033687;28;20187;-80
2022/10/02 04:56:01;;;;;;;11.70;2.35;;;15.50;99.90;;;;;;5033834;28;20254;-81
2022/10/02 04:58:32;;;;;;;12.43;1.80;;;15.60;99.90;;;;;;5033903;28;20538;-85
2022/10/02 05:01:30;;;;;;;17.15;2.50;;;15.50;99.90;;;;;;5033786;28;20192;-81
2022/10/02 05:04:33;;;;;;;19.50;2.13;;;15.50;99.90;;;;;;5033760;28;20543;-83
2022/10/02 05:07:05;;;;;;;14.05;2.30;;;15.40;99.90;;;;;;5033485;28;20195;-80
2022/10/02 05:09:41;;;;;;;10.82;1.75;;;15.30;99.90;;;;;;5033561;28;20217;-81
2022/10/02 05:12:26;;;;;;;10.82;2.15;;;15.50;99.90;;;;;;5033445;28;20236;-84
2022/10/02 05:15:23;;;;;;;10.63;2.08;;;15.40;99.90;;;;;;5033624;28;20195;-81
2022/10/02 05:18:13;;;;;;;9.10;2.08;;;15.40;99.90;;;;;;5032845;28;20515;-81
2022/10/02 05:21:06;;;;;;;8.23;1.42;;;15.50;99.90;;;;;;5033135;28;20164;-81
2022/10/02 05:23:31;;;;;;;10.70;1.85;;;15.60;99.90;;;;;;5032084;28;20253;-80
2022/10/02 05:26:27;;;;;;;12.32;2.15;;;15.60;99.90;;;;;;5033463;28;20195;-82
2022/10/02 05:29:15;;;;;;;15.32;1.95;;;15.50;99.90;;;;;;5033459;28;20205;-82
2022/10/02 05:32:14;;;;;;;10.20;1.48;;;15.60;99.90;;;;;;5033384;28;20642;-80
2022/10/02 05:34:45;;;;;;;9.40;1.67;;;15.70;99.90;;;;;;5026079;28;20211;-80
2022/10/02 05:37:34;;;;;;;9.50;2.20;;;15.60;99.90;;;;;;5032909;28;20298;-91
2022/10/02 05:40:16;;;;;;;12.05;1.98;;;15.50;99.90;;;;;;5031773;28;20168;-84
2022/10/02 05:43:06;;;;;;;10.18;2.00;;;15.40;99.90;;;;;;5031542;28;20263;-85
2022/10/02 05:46:15;;;;;;;8.25;1.50;;;15.50;99.90;;;;;;5021407;28;20258;-80
2022/10/02 05:48:45;;;;;;;10.35;2.63;;;15.60;99.90;;;;;;5011153;28;20271;-79
2022/10/02 05:51:21;;;;;;;15.30;2.22;;;15.60;99.90;;;;;;5011092;28;20207;-79
2022/10/02 05:54:02;;;;;;;10.43;2.08;;;15.60;99.90;;;;;;5023759;28;20207;-82
2022/10/02 05:56:46;;;;;;;9.93;2.80;;;15.70;99.90;;;;;;5032917;28;20528;-81
2022/10/02 05:59:35;;;;;;;7.43;1.75;;;15.70;99.90;;;;;;5032719;28;20171;-82
2022/10/02 06:02:23;;;;;;;8.02;1.80;;;15.70;99.90;;;;;;5032742;28;20254;-85
2022/10/02 06:05:02;;;;;;;12.38;2.10;;;15.60;99.90;;;;;;5032845;28;20207;-84
2022/10/02 06:07:29;;;;;;;11.52;1.88;;;15.60;99.90;;;;;;5032353;28;20250;-78
2022/10/02 06:10:18;;;;;;;4.90;1.63;;;15.50;99.90;;;;;;5033029;28;20171;-79
2022/10/02 06:13:18;;;;;;;16.35;1.90;;;15.50;99.90;;;;;;5032162;28;20272;-78
2022/10/02 06:15:55;;;;;;;3.85;1.50;;;15.40;99.90;;;;;;5032462;28;20198;-78
2022/10/02 06:18:25;;;;;;;11.82;2.00;;;15.30;99.90;;;;;;5032050;28;20167;-79
2022/10/02 06:21:06;;;;;;;9.48;1.90;;;15.20;99.90;;;;;;5031561;28;20168;-78
2022/10/02 06:23:53;;;;;;;12.45;1.83;;;15.20;99.90;;;;;;5030827;28;20192;-78
2022/10/02 06:26:31;;;;;;;8.93;1.98;;;15.30;99.90;;;;;;5031746;28;20210;-77
2022/10/02 06:29:03;;;;;;;8.20;2.10;;;15.20;99.90;;;;;;5032492;28;20206;-80
2022/10/02 06:31:46;;;;;;;13.40;1.65;;;15.20;99.90;;;;;;5032988;28;20271;-82
2022/10/02 06:34:13;;;;;;;6.38;1.95;;;15.30;99.90;;;;;;5032348;28;20179;-80
2022/10/02 06:36:46;;;;;;;6.97;2.25;;;15.40;99.90;;;;;;5032842;28;20190;-81
2022/10/02 06:39:47;;;;;;;10.77;1.67;;;15.40;99.90;;;;;;5031797;28;20168;-80
2022/10/02 06:42:24;;;;;;;8.45;1.67;;;15.30;99.90;;;;;;5031741;28;20184;-80
2022/10/02 06:45:18;;;;;;;7.45;2.03;;;15.30;99.90;;;;;;5030541;28;20318;-81
2022/10/02 06:48:15;;;;;;;9.10;1.95;;;15.40;99.90;;;;;;5030861;28;20168;-80
2022/10/02 06:50:56;;;;;;;11.55;2.00;;;15.30;99.90;;;;;;5031872;28;20622;-82
2022/10/02 06:53:40;;;;;;;12.68;1.40;;;15.40;99.90;;;;;;5034749;28;20172;-79
2022/10/02 06:56:28;;;;;;;10.77;2.05;;;15.50;99.90;;;;;;5033077;28;20613;-79
2022/10/02 06:59:12;;;;;;;6.00;1.38;;;15.50;99.90;;;;;;5032721;28;20184;-79
2022/10/02 07:02:07;;;;;;;3.40;1.90;;;15.60;99.90;;;;;;5031998;28;20178;-79
2022/10/02 07:04:48;;;;;;;10.27;2.45;;;15.50;99.90;;;;;;5031620;28;20289;-81
2022/10/02 07:07:40;;;;;;;6.70;1.73;;;15.60;99.90;;;;;;5034808;28;20160;-79
2022/10/02 07:10:14;;;;;;;7.90;1.58;;;15.60;99.90;;;;;;5034748;28;20520;-79
2022/10/02 07:12:46;;;;;;;5.45;1.90;;;15.80;99.90;;;;;;5034387;28;20647;-78
2022/10/02 07:15:30;;;;;;;7.22;2.13;;;15.90;99.90;;;;;;5035557;28;20250;-80
2022/10/02 07:18:29;;;;;;;9.65;2.20;;;15.90;99.90;;;;;;5035847;28;20171;-80
2022/10/02 07:21:17;;;;;;;7.18;2.05;;;15.80;99.90;;;;;;5039315;28;20590;-79
2022/10/02 07:23:55;;;;;;;9.93;1.88;;;15.80;99.90;;;;;;5037197;28;20227;-84
2022/10/02 07:26:45;;;;;;;5.13;1.60;;;15.80;99.90;;;;;;5036343;28;20195;-84
2022/10/02 07:29:24;;;;;;;6.30;1.73;;;15.80;99.90;;;;;;5035315;28;20191;-93
2022/10/02 07:32:09;;;;;;;7.80;2.80;;;15.80;99.90;;;;;;5039595;28;20190;-81
2022/10/02 07:34:56;;;;;;;6.95;2.15;;;15.90;99.90;;;;;;5037244;28;20199;-81
2022/10/02 07:37:24;;;;;;;7.80;1.70;;;15.90;99.90;;;;;;5038432;28;20244;-76
2022/10/02 07:40:09;;;;;;;3.22;1.77;;;15.90;99.90;;;;;;5037452;28;20847;-91
2022/10/02 07:42:46;;;;;;;8.80;4.15;;;16.00;99.90;;;;;;5035869;28;20245;-85
2022/10/02 07:45:48;;;;;;;6.15;2.53;;;16.10;99.90;;;;;;5038635;28;20848;-81
2022/10/02 07:48:31;;;;;;;5.43;1.50;;;16.10;99.90;;;;;;5037515;28;20727;-83
2022/10/02 07:54:26;;;;;;;6.25;2.00;;;16.10;99.90;;;;;;5039130;28;20687;-82
2022/10/02 07:56:57;;;;;;;13.10;1.98;;;16.10;99.90;;;;;;5036517;28;20526;-86
2022/10/02 07:59:23;;;;;;;6.38;2.60;;;16.30;99.90;;;;;;5037275;28;20171;-81
2022/10/02 08:01:50;;;;;;;11.68;7.07;;;16.30;99.90;;;;;;5037341;28;20174;-92
2022/10/02 08:04:23;;;;;;;9.20;5.82;;;16.30;99.90;;;;;;5036881;28;20214;-87
2022/10/02 08:06:56;;;;;;;6.55;3.03;;;16.30;99.90;;;;;;5035564;28;20233;-83
2022/10/02 08:09:36;;;;;;;5.82;2.38;;;16.40;99.90;;;;;;5034477;28;20210;-79
2022/10/02 08:12:08;;;;;;;3.92;1.52;;;16.50;99.90;;;;;;5035149;28;20167;-79
2022/10/02 08:14:42;;;;;;;1.63;1.15;;;16.50;99.90;;;;;;5036075;28;20199;-88
2022/10/02 08:17:33;;;;;;;7.43;1.90;;;16.70;99.90;;;;;;5035001;28;20700;-78
2022/10/02 08:20:26;;;;;;;2.63;1.27;;;16.90;99.90;;;;;;5036584;28;20167;-94
2022/10/02 08:23:01;;;;;;;4.38;1.08;;;16.90;99.90;;;;;;5047842;28;20208;-92
2022/10/02 08:25:53;;;;;;;4.47;1.60;;;16.80;99.90;;;;;;5035469;28;20233;-86
2022/10/02 08:28:22;;;;;;;4.00;1.48;;;16.90;99.90;;;;;;5036162;28;20184;-91
2022/10/02 08:30:47;;;;;;;4.95;1.38;;;16.90;99.90;;;;;;5034501;28;20188;-85
2022/10/02 08:33:21;;;;;;;4.07;2.05;;;16.70;99.90;;;;;;5035309;28;20172;-87
2022/10/02 08:36:09;;;;;;;53.03;27.40;;;16.80;99.90;;;;;;5035440;28;20184;-78
2022/10/02 08:38:57;;;;;;;86.65;41.40;;;16.80;99.90;;;;;;5034249;28;20168;-79
2022/10/02 08:41:50;;;;;;;65.25;35.40;;;16.60;99.90;;;;;;5034649;28;20164;-81
2022/10/02 08:44:31;;;;;;;29.90;20.35;;;16.70;99.90;;;;;;5034065;28;20568;-78
2022/10/02 08:47:39;;;;;;;14.60;13.10;;;16.60;99.90;;;;;;5033457;28;20172;-82
2022/10/02 08:50:14;;;;;;;6.53;4.78;;;16.70;99.90;;;;;;5033697;28;20172;-83
2022/10/02 08:53:08;;;;;;;11.82;3.97;;;16.60;99.90;;;;;;5033937;28;20183;-78
2022/10/02 08:55:52;;;;;;;6.18;2.53;;;16.60;99.90;;;;;;5033693;28;20195;-79
2022/10/02 08:59:06;;;;;;;4.55;2.03;;;16.50;99.90;;;;;;5032366;28;20178;-79
2022/10/02 09:01:56;;;;;;;8.93;2.42;;;16.60;99.90;;;;;;5033341;28;20179;-78
2022/10/02 09:04:40;;;;;;;5.60;1.60;;;16.50;99.90;;;;;;5033036;28;20238;-83
2022/10/02 09:07:20;;;;;;;4.32;1.50;;;16.50;99.90;;;;;;5048587;28;20164;-85
2022/10/02 09:10:18;;;;;;;7.30;1.67;;;16.60;99.90;;;;;;5033312;28;20233;-77
2022/10/02 09:13:08;;;;;;;3.90;1.55;;;16.70;99.90;;;;;;5033443;28;20531;-79
2022/10/02 09:15:46;;;;;;;5.22;1.42;;;16.70;99.90;;;;;;5033058;28;20561;-79
2022/10/02 09:18:43;;;;;;;3.58;1.23;;;16.60;99.90;;;;;;5033437;28;20164;-78
2022/10/02 09:21:25;;;;;;;3.88;2.47;;;16.50;99.90;;;;;;5033907;28;20187;-78
2022/10/02 09:24:06;;;;;;;6.97;1.85;;;16.50;99.90;;;;;;5032382;28;20211;-87
2022/10/02 09:26:55;;;;;;;4.10;2.00;;;16.50;99.90;;;;;;5032974;28;20218;-77
2022/10/02 09:29:39;;;;;;;7.78;2.30;;;16.40;99.90;;;;;;5032241;28;20191;-79
2022/10/02 09:32:42;;;;;;;6.70;3.72;;;16.50;99.90;;;;;;5033586;28;20183;-77
2022/10/02 09:35:32;;;;;;;9.60;2.70;;;16.50;99.90;;;;;;5032949;28;20202;-77
2022/10/02 09:38:13;;;;;;;6.25;2.63;;;16.10;99.90;;;;;;5035852;28;20243;-80
2022/10/02 09:41:03;;;;;;;5.32;3.20;;;16.30;99.90;;;;;;5036278;28;20168;-87
2022/10/02 09:43:34;;;;;;;3.10;2.08;;;16.60;99.90;;;;;;5032930;28;20180;-80
2022/10/02 09:46:37;;;;;;;3.72;1.90;;;16.60;99.90;;;;;;5035360;28;20200;-77
2022/10/02 09:49:33;;;;;;;8.18;1.60;;;16.70;99.90;;;;;;5031823;28;20294;-77
2022/10/02 09:52:30;;;;;;;4.80;2.72;;;16.80;99.90;;;;;;5032551;28;20207;-77
2022/10/02 09:55:44;;;;;;;3.35;1.85;;;16.90;99.90;;;;;;5033347;28;20192;-77
2022/10/02 09:58:19;;;;;;;3.78;2.05;;;16.80;99.90;;;;;;5032953;28;20170;-79
2022/10/02 10:00:56;;;;;;;3.10;1.35;;;16.60;99.90;;;;;;5032322;28;20657;-79
2022/10/02 10:03:47;;;;;;;1.88;1.50;;;16.40;99.90;;;;;;5032198;28;20163;-79
2022/10/02 10:06:57;;;;;;;2.88;1.27;;;16.60;99.90;;;;;;5029811;28;20215;-82
2022/10/02 10:09:51;;;;;;;2.78;1.73;;;16.50;99.90;;;;;;5028131;28;20172;-80
2022/10/02 10:12:40;;;;;;;6.05;2.60;;;16.30;99.90;;;;;;5012922;28;20176;-81
2022/10/02 10:15:43;;;;;;;2.67;2.30;;;16.40;99.90;;;;;;5019694;28;20190;-82
2022/10/02 10:18:25;;;;;;;5.53;4.13;;;16.50;99.90;;;;;;5052466;28;20167;-85
2022/10/02 10:21:30;;;;;;;4.22;1.63;;;16.50;99.90;;;;;;5051534;28;20178;-82
2022/10/02 10:24:36;;;;;;;5.88;2.53;;;16.60;99.90;;;;;;5050997;28;20201;-77
2022/10/02 10:27:34;;;;;;;7.97;5.15;;;16.60;99.90;;;;;;5043355;28;20174;-86
2022/10/02 10:30:21;;;;;;;6.60;5.28;;;16.70;99.90;;;;;;5005461;28;20193;-79
2022/10/02 10:33:11;;;;;;;4.90;2.30;;;16.80;99.90;;;;;;5033235;28;20171;-83
2022/10/02 10:35:39;;;;;;;1.92;1.40;;;16.60;99.90;;;;;;5031369;28;20769;-78
2022/10/02 10:38:31;;;;;;;3.28;1.40;;;16.60;99.90;;;;;;5033614;28;20219;-79
2022/10/02 10:41:35;;;;;;;3.30;1.70;;;16.70;99.90;;;;;;5051960;28;20567;-80
2022/10/02 10:44:25;;;;;;;5.22;1.30;;;17.10;99.90;;;;;;5035705;28;20203;-80
2022/10/02 10:47:19;;;;;;;4.63;1.35;;;17.20;99.90;;;;;;5035807;28;20585;-80
2022/10/02 10:50:06;;;;;;;2.60;1.65;;;17.20;99.90;;;;;;5025508;28;20601;-81
2022/10/02 10:53:26;;;;;;;2.45;1.40;;;17.30;99.90;;;;;;5033777;28;20682;-80
2022/10/02 10:56:20;;;;;;;3.15;2.10;;;17.60;99.90;;;;;;5035083;28;20281;-81
2022/10/02 10:59:18;;;;;;;2.13;1.75;;;17.50;99.90;;;;;;5035851;28;20677;-81
2022/10/02 11:02:12;;;;;;;7.90;1.80;;;17.60;99.90;;;;;;5013786;28;20176;-80
2022/10/02 11:05:16;;;;;;;3.50;1.50;;;17.60;99.90;;;;;;5035058;28;20714;-81
2022/10/02 11:08:09;;;;;;;5.35;2.05;;;17.50;99.90;;;;;;5035190;28;20564;-80
2022/10/02 11:10:58;;;;;;;3.53;1.83;;;17.60;99.90;;;;;;5034209;28;20180;-79
2022/10/02 11:13:42;;;;;;;6.72;1.23;;;17.70;99.90;;;;;;5034853;28;20206;-79
2022/10/02 11:16:36;;;;;;;3.65;2.00;;;17.80;99.90;;;;;;5033633;28;20202;-81
2022/10/02 11:19:01;;;;;;;3.85;1.90;;;17.60;99.90;;;;;;5033733;28;20579;-78
2022/10/02 11:21:45;;;;;;;2.90;1.50;;;17.60;99.90;;;;;;5034164;28;20211;-80
2022/10/02 11:24:26;;;;;;;3.35;2.10;;;17.80;99.90;;;;;;5034707;28;20207;-80
2022/10/02 11:27:12;;;;;;;2.10;1.50;;;17.80;99.90;;;;;;5034809;28;20214;-80
2022/10/02 11:30:01;;;;;;;3.00;1.38;;;18.20;99.90;;;;;;5035230;28;20168;-80
2022/10/02 11:33:16;;;;;;;4.82;2.20;;;18.40;99.90;;;;;;5032174;28;20302;-81
2022/10/02 11:36:06;;;;;;;4.15;2.78;;;18.60;99.90;;;;;;5000014;28;20210;-80
2022/10/02 11:39:03;;;;;;;6.80;3.95;;;18.20;99.90;;;;;;5034081;28;20168;-79
2022/10/02 11:41:43;;;;;;;4.40;2.47;;;18.50;99.90;;;;;;5034251;28;20183;-80
2022/10/02 11:44:16;;;;;;;5.97;2.30;;;18.20;99.90;;;;;;5034511;28;20199;-81
2022/10/02 11:47:03;;;;;;;6.07;2.10;;;18.30;99.90;;;;;;5034255;28;20160;-81
2022/10/02 11:50:00;;;;;;;3.30;1.60;;;18.30;99.90;;;;;;5035168;28;20218;-82
2022/10/02 11:52:45;;;;;;;3.38;1.30;;;18.40;99.90;;;;;;5034038;28;20180;-82
2022/10/02 11:55:51;;;;;;;4.78;1.88;;;18.40;99.90;;;;;;5034499;28;20250;-80
2022/10/02 11:58:44;;;;;;;6.30;1.92;;;18.20;99.90;;;;;;5025836;28;20212;-81
2022/10/02 12:01:44;;;;;;;4.10;1.48;;;18.30;99.90;;;;;;5034239;28;20229;-80
2022/10/02 12:04:33;;;;;;;5.38;1.80;;;18.30;99.90;;;;;;5034608;28;20203;-79
2022/10/02 12:07:25;;;;;;;3.30;1.52;;;18.30;99.90;;;;;;5035193;28;20614;-83
2022/10/02 12:10:09;;;;;;;3.35;1.70;;;18.00;99.90;;;;;;5035387;28;20654;-80
2022/10/02 12:13:09;;;;;;;5.93;1.98;;;18.10;99.90;;;;;;5050478;28;20164;-82
2022/10/02 12:15:55;;;;;;;3.55;1.63;;;18.20;99.90;;;;;;5033538;28;20253;-80
2022/10/02 12:18:58;;;;;;;5.28;1.73;;;18.30;99.90;;;;;;5035321;28;20254;-82
2022/10/02 12:28:09;;;;;;;4.55;2.30;;;18.50;99.90;;;;;;5035426;28;20291;-86
2022/10/02 12:31:09;;;;;;;3.53;2.50;;;18.10;99.90;;;;;;5051897;28;20183;-80
2022/10/02 12:34:08;;;;;;;4.57;2.28;;;18.00;99.90;;;;;;5035383;28;20214;-80
2022/10/02 12:37:13;;;;;;;4.35;3.25;;;18.00;99.90;;;;;;5034185;28;20176;-82
2022/10/02 12:40:13;;;;;;;8.70;6.65;;;18.00;99.90;;;;;;5023144;28;20257;-80
2022/10/02 12:43:17;;;;;;;8.05;6.43;;;18.00;99.90;;;;;;5034201;28;20168;-80
2022/10/02 12:46:02;;;;;;;6.18;3.70;;;18.00;99.90;;;;;;5035318;28;20222;-80
2022/10/02 12:48:56;;;;;;;5.28;3.90;;;18.00;99.90;;;;;;5034195;28;20160;-80
2022/10/02 12:51:33;;;;;;;5.63;2.70;;;18.30;99.90;;;;;;5051821;28;20164;-80
2022/10/02 12:54:26;;;;;;;5.15;2.90;;;18.30;99.90;;;;;;5053110;28;20190;-80
2022/10/02 12:57:50;;;;;;;4.57;3.05;;;18.40;99.90;;;;;;5055945;28;20302;-80
2022/10/02 13:00:15;;;;;;;4.72;3.38;;;18.50;99.90;;;;;;5056513;28;20175;-82
2022/10/02 13:02:51;;;;;;;8.75;6.43;;;18.70;99.90;;;;;;5054983;28;20164;-81
2022/10/02 13:05:45;;;;;;;6.32;4.20;;;18.70;99.90;;;;;;5053618;28;20298;-81
2022/10/02 13:08:40;;;;;;;4.72;3.13;;;18.50;99.90;;;;;;5055327;28;20235;-80
2022/10/02 13:11:22;;;;;;;4.22;2.83;;;18.60;99.90;;;;;;5035579;28;20171;-80
2022/10/02 13:14:09;;;;;;;5.43;3.55;;;18.40;99.90;;;;;;5033722;28;20167;-80
2022/10/02 13:16:47;;;;;;;6.22;5.57;;;18.50;99.90;;;;;;5033544;28;20174;-79
2022/10/02 13:19:38;;;;;;;10.40;7.75;;;18.30;99.90;;;;;;5034445;28;20179;-80
2022/10/02 13:22:17;;;;;;;9.82;4.40;;;18.60;99.90;;;;;;5037602;28;20160;-80
2022/10/02 13:25:01;;;;;;;6.47;5.10;;;18.40;99.90;;;;;;5035610;28;20215;-80
2022/10/02 13:27:51;;;;;;;8.13;3.65;;;18.30;99.90;;;;;;5033706;28;20176;-81
2022/10/02 13:30:19;;;;;;;6.85;5.70;;;18.20;99.90;;;;;;5031895;28;20171;-79
2022/10/02 13:32:51;;;;;;;7.40;3.78;;;18.20;99.90;;;;;;5032877;28;20160;-80
2022/10/02 13:35:26;;;;;;;6.88;3.92;;;18.20;99.90;;;;;;5033066;28;20188;-80
2022/10/02 13:38:01;;;;;;;11.70;4.38;;;18.10;99.90;;;;;;5032862;28;20171;-80
2022/10/02 13:40:57;;;;;;;8.45;4.38;;;18.10;99.90;;;;;;5031556;28;20167;-80
2022/10/02 13:43:41;;;;;;;9.30;4.03;;;18.40;99.90;;;;;;5032793;28;20346;-80
2022/10/02 13:46:20;;;;;;;6.05;3.65;;;18.50;99.90;;;;;;5032505;28;20249;-80
2022/10/02 13:48:45;;;;;;;7.47;3.22;;;18.60;99.90;;;;;;5032736;28;20167;-84
2022/10/02 13:51:27;;;;;;;9.20;3.70;;;18.60;99.90;;;;;;5032764;28;20222;-80
2022/10/02 13:54:18;;;;;;;10.60;3.65;;;18.50;99.90;;;;;;5031252;28;20184;-82
2022/10/02 13:56:49;;;;;;;8.95;4.30;;;18.60;99.90;;;;;;5032684;28;20168;-81
2022/10/02 13:59:21;;;;;;;9.10;5.28;;;18.70;99.90;;;;;;5033395;28;20167;-80
2022/10/02 14:02:15;;;;;;;12.55;7.85;;;18.70;99.90;;;;;;5033404;28;20214;-80
2022/10/02 14:05:05;;;;;;;14.98;4.68;;;18.90;99.90;;;;;;5031282;28;20712;-80
2022/10/02 14:07:40;;;;;;;5.38;3.85;;;18.80;99.90;;;;;;5032161;28;20178;-80
2022/10/02 14:10:32;;;;;;;5.90;3.15;;;18.80;99.90;;;;;;5032541;28;20170;-80
2022/10/02 14:13:25;;;;;;;4.35;2.90;;;18.50;99.90;;;;;;5032362;28;20257;-80
2022/10/02 14:15:57;;;;;;;10.80;6.47;;;18.40;99.90;;;;;;5034896;28;20682;-80